Flight Track Log - Related Links

Times and Time Zones

All times are in EDT time to prevent confusion due to time zone crossing. See the SKW5187 flight status page for this flight to view local times or setup timezone preferences in your user account.

Time Position Orientation Groundspeed Altitude Reporting Facility
EDT Latitude Longitude Course Direction KTS MPH feet Rate Location/Type
Wed 06:15:23 PM 30.1028 -97.6358 90° East 232 267 23,000  Level Houston Center
Wed 06:16:00 PM 30.3511 -97.5437 30° Northeast  Level FlightAware Approximate
Wed 06:16:25 PM 30.0844 -97.5661 107° East 226 260 23,000  Level Houston Center
Wed 06:17:00 PM 30.3636 -97.4769 95° East  Level FlightAware Approximate
Wed 06:17:27 PM 30.0642 -97.4889 107° East 244 281 23,000  Level Houston Center
Wed 06:18:00 PM 30.3577 -97.3997 95° East  Level FlightAware Approximate
Wed 06:18:29 PM 30.1111 -97.4031 58° Northeast 282 325 23,000  Level Houston Center
Wed 06:19:00 PM 30.3517 -97.3226 95° East  Level FlightAware Approximate
Wed 06:19:31 PM 30.1706 -97.3267 48° Northeast 309 356 11,900  Level Houston Center
Wed 06:20:00 PM 30.3500 -97.2453 90° East  Level FlightAware Approximate
Wed 06:20:33 PM 30.2419 -97.2306 49° Northeast 333 383 12,400  Level Houston Center
Wed 06:21:35 PM 30.3017 -97.1492 50° Northeast 331 381 14,500 1,887 Climbing Houston Center
Wed 06:22:37 PM 30.3650 -97.0639 49° Northeast 345 397 16,300 1,694 Climbing Houston Center
Wed 06:23:39 PM 30.4169 -96.9658 58° Northeast 374 430 18,000 1,597 Climbing Houston Center
Wed 06:24:41 PM 30.4106 -96.8461 94° East 374 430 19,600 1,452 Climbing Houston Center
Wed 06:25:43 PM 30.4144 -96.7256 88° East 373 429 21,000 677 Climbing Houston Center
Wed 06:26:45 PM 30.4200 -96.5969 87° East 392 451 21,000 -387 Level Houston Center
Wed 06:27:47 PM 30.4281 -96.4422 87° East 407 468 20,200 -1,770 Descending Houston Center
Wed 06:28:47 PM 30.4328 -96.3108 88° East 400 460 17,400 -2,638 Descending Houston Center
Wed 06:29:43 PM 30.4381 -96.2014 87° East 379 436 15,100 -2,615 Descending Houston Center
Wed 06:30:44 PM 30.4425 -96.0797 88° East 362 417 12,300 -2,391 Descending Houston Center
Wed 06:31:51 PM 30.4489 -95.9581 86° East 345 397 10,000 -1,475 Descending Houston Center
Wed 06:32:46 PM 30.4414 -95.8717 96° East 280 322 9,300 -1,603 Descending Houston Center
Wed 06:33:47 PM 30.3689 -95.8342 156° South 279 321 6,900 -1,623 Descending Houston Center
Wed 06:34:48 PM 30.2992 -95.8058 161° South 272 313 6,000 -400 Descending Houston Center
Wed 06:36:02 PM 30.2292 -95.7589 150° Southeast 250 288 6,000 -195 Level Houston Center
Wed 06:36:51 PM 30.1794 -95.7086 139° Southeast 259 298 5,600 -879 Descending Houston Center
Wed 06:37:58 PM 30.1239 -95.6525 139° Southeast 251 289 4,300 -1,230 Descending Houston Center
Wed 06:38:53 PM 30.0756 -95.6050 140° Southeast 244 281 3,100 -615 Descending Houston Center
Wed 06:39:55 PM 30.0269 -95.5528 137° Southeast 217 250 3,100  Level Houston Center

Login

Don't have an account? Register now (free) for customized features, flight alerts, and more!